Time;durP1;ratioP1;P1;durP2;ratioP2;P2;SDS_P1;SDS_P2;PMS_P1;PMS_P2;Temp;Humidity;BMP_temperature;BMP_pressure;BME280_temperature;BME280_humidity;BME280_pressure;Samples;Min_cycle;Max_cycle;Signal;HPM_P1;HPM_P2
2021/12/19 00:01:33;;;;;;;31.53;21.37;;;8.20;99.90;;;;;;5031168;28;20449;-81
2021/12/19 00:04:15;;;;;;;32.50;20.23;;;8.10;99.90;;;;;;5020374;28;20461;-82
2021/12/19 00:09:28;;;;;;;31.73;20.37;;;8.10;99.90;;;;;;5038698;28;20475;-82
2021/12/19 00:11:56;;;;;;;29.00;19.97;;;8.10;99.90;;;;;;5038614;28;20513;-82
2021/12/19 00:14:23;;;;;;;29.60;18.40;;;8.10;99.90;;;;;;5038852;28;20461;-81
2021/12/19 00:16:50;;;;;;;30.57;19.60;;;8.10;99.90;;;;;;5038409;28;20499;-82
2021/12/19 00:19:17;;;;;;;29.23;18.43;;;8.10;99.90;;;;;;5038805;28;20484;-82
2021/12/19 00:21:44;;;;;;;25.03;17.57;;;8.10;99.90;;;;;;5020307;28;20489;-82
2021/12/19 00:24:11;;;;;;;32.80;19.60;;;8.10;99.90;;;;;;5021417;28;20832;-81
2021/12/19 00:26:40;;;;;;;27.87;18.37;;;8.10;99.90;;;;;;5033697;28;20454;-82
2021/12/19 00:29:07;;;;;;;28.97;19.60;;;8.20;99.90;;;;;;5020631;28;20453;-82
2021/12/19 00:31:35;;;;;;;26.90;18.77;;;8.20;99.90;;;;;;5019005;28;20458;-82
2021/12/19 00:34:02;;;;;;;26.20;18.50;;;8.10;99.90;;;;;;5019928;28;20463;-82
2021/12/19 00:36:29;;;;;;;32.93;19.63;;;8.20;99.90;;;;;;5034828;28;21031;-82
2021/12/19 00:38:56;;;;;;;23.67;16.93;;;8.20;99.90;;;;;;5019511;28;20492;-82
2021/12/19 00:41:24;;;;;;;28.00;18.23;;;8.20;99.90;;;;;;5021350;28;20450;-83
2021/12/19 00:43:55;;;;;;;18.70;13.23;;;8.10;99.90;;;;;;5022161;28;20461;-82
2021/12/19 00:46:24;;;;;;;21.03;14.63;;;8.20;99.90;;;;;;5038066;28;20450;-83
2021/12/19 00:48:53;;;;;;;19.50;14.20;;;8.20;99.90;;;;;;5023075;28;20446;-82
2021/12/19 00:51:22;;;;;;;16.43;12.03;;;8.20;99.90;;;;;;5038808;28;20899;-82
2021/12/19 00:53:50;;;;;;;19.73;12.93;;;8.20;99.90;;;;;;5039253;28;20479;-82
2021/12/19 00:56:17;;;;;;;17.83;12.27;;;8.20;99.90;;;;;;5038806;28;20490;-83
2021/12/19 00:58:45;;;;;;;15.70;12.27;;;8.30;99.90;;;;;;5024019;28;20456;-83
2021/12/19 01:01:15;;;;;;;17.50;11.80;;;8.20;99.90;;;;;;5018915;28;20461;-83
2021/12/19 01:03:43;;;;;;;15.40;11.87;;;8.20;99.90;;;;;;5029825;28;20472;-82
2021/12/19 01:06:10;;;;;;;19.40;12.83;;;8.30;99.90;;;;;;5023385;28;20853;-82
2021/12/19 01:08:37;;;;;;;14.37;11.10;;;8.20;99.90;;;;;;5040355;28;20886;-82
2021/12/19 01:11:05;;;;;;;13.90;10.50;;;8.20;99.90;;;;;;5024684;28;20980;-82
2021/12/19 01:13:32;;;;;;;18.23;10.10;;;8.20;99.90;;;;;;5018624;28;20484;-82
2021/12/19 01:16:01;;;;;;;16.10;10.47;;;8.20;99.90;;;;;;5029301;28;20477;-82
2021/12/19 01:18:29;;;;;;;16.67;12.10;;;8.20;99.90;;;;;;5035848;28;21007;-82
2021/12/19 01:20:56;;;;;;;15.00;11.53;;;8.20;99.90;;;;;;5026890;28;20537;-81
2021/12/19 01:23:23;;;;;;;15.47;11.43;;;8.20;99.90;;;;;;5018489;28;20554;-82
2021/12/19 01:25:50;;;;;;;17.80;12.53;;;8.20;99.90;;;;;;5026952;28;20451;-81
2021/12/19 01:28:17;;;;;;;27.43;17.23;;;8.20;99.90;;;;;;5020476;28;20464;-81
2021/12/19 01:30:45;;;;;;;21.13;14.07;;;8.10;99.90;;;;;;5018755;28;20814;-81
2021/12/19 01:33:11;;;;;;;26.03;17.83;;;8.10;99.90;;;;;;5031536;28;20497;-82
2021/12/19 01:35:40;;;;;;;21.13;15.40;;;8.10;99.90;;;;;;5033041;28;20487;-82
2021/12/19 01:38:06;;;;;;;25.93;17.97;;;8.10;99.90;;;;;;5033705;28;20834;-82
2021/12/19 01:40:33;;;;;;;21.87;15.10;;;8.00;99.90;;;;;;5037995;28;20452;-81
2021/12/19 01:43:01;;;;;;;28.03;18.17;;;8.10;99.90;;;;;;5037255;28;20484;-81
2021/12/19 01:45:30;;;;;;;23.80;15.70;;;8.10;99.90;;;;;;5033412;28;20465;-81
2021/12/19 01:47:58;;;;;;;25.00;16.93;;;8.10;99.90;;;;;;5030016;28;20452;-82
2021/12/19 01:50:25;;;;;;;25.30;16.50;;;8.00;99.90;;;;;;5016802;28;20462;-81
2021/12/19 01:52:53;;;;;;;27.77;18.93;;;8.00;99.90;;;;;;5016132;28;20473;-81
2021/12/19 01:55:20;;;;;;;25.27;19.00;;;7.90;99.90;;;;;;5034541;28;20452;-82
2021/12/19 01:57:47;;;;;;;27.97;20.10;;;7.90;99.90;;;;;;5034318;28;20498;-82
2021/12/19 02:00:21;;;;;;;27.37;17.77;;;7.80;99.90;;;;;;5036009;28;20454;-82
2021/12/19 02:02:48;;;;;;;25.13;18.60;;;7.90;99.90;;;;;;5034932;28;20477;-82
2021/12/19 02:05:15;;;;;;;30.23;20.13;;;8.00;99.90;;;;;;5036421;28;20457;-82
2021/12/19 02:07:46;;;;;;;29.43;19.70;;;7.90;99.90;;;;;;5027380;28;20532;-83
2021/12/19 02:10:15;;;;;;;25.20;18.30;;;7.90;99.90;;;;;;5016970;28;20464;-82
2021/12/19 02:12:43;;;;;;;27.53;18.13;;;8.00;99.90;;;;;;5040508;28;20479;-80
2021/12/19 02:15:11;;;;;;;27.37;17.07;;;8.00;99.90;;;;;;5051122;28;20508;-80
2021/12/19 02:17:38;;;;;;;29.73;18.10;;;8.00;99.90;;;;;;5028451;28;20481;-81
2021/12/19 02:20:11;;;;;;;25.20;17.93;;;8.00;99.90;;;;;;5017472;28;20460;-83
2021/12/19 02:22:39;;;;;;;29.97;17.20;;;8.00;99.90;;;;;;5033324;28;20496;-83
2021/12/19 02:25:07;;;;;;;23.20;16.60;;;8.00;99.90;;;;;;5036244;28;20902;-83
2021/12/19 02:27:34;;;;;;;25.97;16.73;;;8.00;99.90;;;;;;5032961;28;20623;-83
2021/12/19 02:30:01;;;;;;;25.33;14.97;;;8.00;99.90;;;;;;5037322;28;20470;-82
2021/12/19 02:32:30;;;;;;;20.00;13.53;;;8.00;99.90;;;;;;5035362;28;20577;-83
2021/12/19 02:35:00;;;;;;;28.23;15.90;;;8.00;99.90;;;;;;5035226;28;20978;-83
2021/12/19 02:40:30;;;;;;;20.00;13.77;;;8.00;99.90;;;;;;5020285;28;20981;-84
2021/12/19 02:48:23;;;;;;;17.37;12.00;;;8.00;99.90;;;;;;5037043;28;20433;-80
2021/12/19 02:50:54;;;;;;;18.53;12.20;;;8.00;99.90;;;;;;5037660;28;20831;-83
2021/12/19 02:53:30;;;;;;;15.90;10.50;;;8.00;99.90;;;;;;5021816;28;20508;-84
2021/12/19 02:55:57;;;;;;;13.97;10.77;;;7.90;99.90;;;;;;5026255;28;20454;-81
2021/12/19 02:58:24;;;;;;;16.03;10.27;;;8.00;99.90;;;;;;5022506;28;20942;-81
2021/12/19 03:00:51;;;;;;;13.93;9.70;;;8.00;99.90;;;;;;5017256;28;20455;-84
2021/12/19 03:03:18;;;;;;;11.87;8.70;;;8.00;99.90;;;;;;5022173;28;20564;-84
2021/12/19 03:05:45;;;;;;;14.83;10.00;;;8.10;99.90;;;;;;5021946;28;20701;-84
2021/12/19 03:08:12;;;;;;;16.50;10.83;;;8.10;99.90;;;;;;5020604;28;20456;-81
2021/12/19 03:11:24;;;;;;;11.87;9.47;;;8.10;99.90;;;;;;5026401;28;20506;-81
2021/12/19 03:19:13;;;;;;;11.70;6.97;;;8.00;99.90;;;;;;5030894;28;20452;-83
2021/12/19 03:21:41;;;;;;;7.60;6.57;;;8.00;99.90;;;;;;5020407;28;20430;-83
2021/12/19 03:24:08;;;;;;;8.00;5.70;;;7.90;99.90;;;;;;5026604;28;20475;-84
2021/12/19 03:26:37;;;;;;;8.50;6.17;;;7.60;99.90;;;;;;5033880;28;21022;-83
2021/12/19 03:29:04;;;;;;;7.10;5.20;;;7.60;99.90;;;;;;5038433;28;20456;-84
2021/12/19 03:31:31;;;;;;;8.93;5.87;;;7.60;99.90;;;;;;5039997;28;20459;-83
2021/12/19 03:33:59;;;;;;;8.00;6.17;;;7.50;99.90;;;;;;5034261;28;20449;-84
2021/12/19 03:36:27;;;;;;;7.33;5.37;;;7.30;99.90;;;;;;5031844;28;20580;-83
2021/12/19 03:38:58;;;;;;;10.80;6.70;;;7.40;99.90;;;;;;5035795;28;20837;-83
2021/12/19 03:41:33;;;;;;;8.57;5.77;;;7.30;99.90;;;;;;5019817;28;20456;-84
2021/12/19 03:44:02;;;;;;;8.10;5.33;;;7.40;99.90;;;;;;5039332;28;20492;-84
2021/12/19 03:46:28;;;;;;;6.90;4.97;;;7.40;99.90;;;;;;5026833;28;20464;-84
2021/12/19 03:48:55;;;;;;;8.97;5.90;;;7.50;99.90;;;;;;5037508;28;20451;-81
2021/12/19 03:51:22;;;;;;;8.07;5.60;;;7.40;99.90;;;;;;5038731;28;20528;-81
2021/12/19 03:53:49;;;;;;;11.60;6.90;;;7.50;99.90;;;;;;5022635;28;20480;-82
2021/12/19 03:56:16;;;;;;;8.00;6.10;;;7.50;99.90;;;;;;5022457;28;20460;-81
2021/12/19 03:58:43;;;;;;;7.50;5.70;;;7.50;99.90;;;;;;5038733;28;20456;-82
2021/12/19 04:01:11;;;;;;;8.40;5.90;;;7.60;99.90;;;;;;5037129;28;20459;-81
2021/12/19 04:03:38;;;;;;;12.10;6.67;;;7.70;99.90;;;;;;5039466;28;20862;-81
2021/12/19 04:06:05;;;;;;;8.40;7.00;;;7.70;99.90;;;;;;5035743;28;20486;-82
2021/12/19 04:08:32;;;;;;;8.07;6.53;;;7.70;99.90;;;;;;5039422;28;20448;-82
2021/12/19 04:10:59;;;;;;;10.10;7.43;;;7.80;99.90;;;;;;5035353;28;20454;-81
2021/12/19 04:13:26;;;;;;;9.20;5.87;;;7.80;99.90;;;;;;5019056;28;20469;-82
2021/12/19 04:15:53;;;;;;;11.00;7.13;;;7.70;99.90;;;;;;5022846;28;20452;-81
2021/12/19 04:18:21;;;;;;;13.53;7.87;;;7.60;99.90;;;;;;5019824;28;20548;-81
2021/12/19 04:20:48;;;;;;;11.10;7.20;;;7.60;99.90;;;;;;5030668;28;20820;-82
2021/12/19 04:23:15;;;;;;;10.30;7.43;;;7.60;99.90;;;;;;5039889;28;20472;-81
2021/12/19 04:25:42;;;;;;;13.83;8.80;;;7.70;99.90;;;;;;5033385;28;20525;-82
2021/12/19 04:28:09;;;;;;;13.27;8.10;;;7.60;99.90;;;;;;5037555;28;20449;-80
2021/12/19 04:30:36;;;;;;;11.10;7.90;;;7.60;99.90;;;;;;5030270;28;20553;-80
2021/12/19 04:33:07;;;;;;;9.77;7.27;;;7.70;99.90;;;;;;5016927;28;21012;-81
2021/12/19 04:35:38;;;;;;;13.63;8.23;;;7.70;99.90;;;;;;5027002;28;20457;-81
2021/12/19 04:41:04;;;;;;;10.03;7.33;;;7.70;99.90;;;;;;5035418;28;20502;-82
2021/12/19 04:52:40;;;;;;;9.90;7.33;;;7.50;99.90;;;;;;5016733;28;20453;-81
2021/12/19 04:55:16;;;;;;;13.30;8.23;;;7.50;99.90;;;;;;5056580;28;20483;-81
2021/12/19 04:57:49;;;;;;;13.53;8.40;;;7.50;99.90;;;;;;5020803;28;20496;-81
2021/12/19 05:00:19;;;;;;;10.73;7.33;;;7.50;99.90;;;;;;5026701;28;20514;-81
2021/12/19 05:02:51;;;;;;;12.97;9.00;;;7.50;99.90;;;;;;5038679;28;20476;-82
2021/12/19 05:16:18;;;;;;;13.07;6.53;;;7.60;99.90;;;;;;5031567;28;20448;-82
2021/12/19 05:18:47;;;;;;;8.70;5.30;;;7.60;99.90;;;;;;5030814;28;20461;-82
2021/12/19 05:21:17;;;;;;;8.33;4.73;;;7.60;99.90;;;;;;5039688;28;20452;-82
2021/12/19 05:24:16;;;;;;;7.60;4.80;;;7.60;99.90;;;;;;5028617;28;20585;-82
2021/12/19 05:26:43;;;;;;;6.93;4.97;;;7.60;99.90;;;;;;5022947;28;21031;-81
2021/12/19 05:29:10;;;;;;;7.10;4.20;;;7.60;99.90;;;;;;5018632;28;20464;-82
2021/12/19 05:31:37;;;;;;;8.80;4.50;;;7.70;99.90;;;;;;5023758;28;20457;-82
2021/12/19 05:34:04;;;;;;;6.93;4.43;;;7.60;99.90;;;;;;5038234;28;20459;-82
2021/12/19 05:47:38;;;;;;;12.97;7.53;;;7.50;99.90;;;;;;5013113;28;20457;-81
2021/12/19 05:50:06;;;;;;;13.83;8.00;;;7.50;99.90;;;;;;5017104;28;20453;-82
2021/12/19 05:52:33;;;;;;;16.33;9.50;;;7.40;99.90;;;;;;5016970;28;21056;-82
2021/12/19 05:55:01;;;;;;;14.50;9.30;;;7.40;99.90;;;;;;5027118;28;20979;-82
2021/12/19 05:57:28;;;;;;;14.93;9.33;;;7.30;99.90;;;;;;5019618;28;20557;-84
2021/12/19 05:59:55;;;;;;;14.10;8.77;;;7.30;99.90;;;;;;5026508;28;20980;-84
2021/12/19 06:02:22;;;;;;;12.23;7.27;;;7.30;99.90;;;;;;5024841;28;20476;-84
2021/12/19 06:04:48;;;;;;;11.47;7.00;;;7.40;99.90;;;;;;5030111;28;20448;-83
2021/12/19 06:07:15;;;;;;;12.87;7.27;;;7.40;99.90;;;;;;5036839;28;20454;-84
2021/12/19 06:09:42;;;;;;;8.13;5.37;;;7.30;99.90;;;;;;5029906;28;20471;-83
2021/12/19 06:12:10;;;;;;;7.80;4.57;;;7.30;99.90;;;;;;5021293;28;20593;-84
2021/12/19 06:14:37;;;;;;;6.90;3.90;;;7.30;99.90;;;;;;5026611;28;20987;-82
2021/12/19 06:17:05;;;;;;;5.57;4.30;;;7.40;99.90;;;;;;5021990;28;20561;-83
2021/12/19 06:19:36;;;;;;;4.63;2.90;;;7.40;99.90;;;;;;5022149;28;20968;-82
2021/12/19 06:22:04;;;;;;;4.50;2.97;;;7.30;99.90;;;;;;5024133;28;21024;-83
2021/12/19 06:24:44;;;;;;;6.83;3.17;;;7.20;99.90;;;;;;5027985;28;21021;-79
2021/12/19 06:27:15;;;;;;;7.83;5.53;;;7.20;99.90;;;;;;5018823;28;20815;-80
2021/12/19 06:29:42;;;;;;;6.40;3.17;;;7.20;99.90;;;;;;5040038;28;20466;-83
2021/12/19 06:32:08;;;;;;;4.17;2.13;;;7.20;99.90;;;;;;5025615;28;20484;-84
2021/12/19 06:34:35;;;;;;;3.77;2.50;;;7.30;99.90;;;;;;5029606;28;20460;-80
2021/12/19 06:37:07;;;;;;;4.60;2.23;;;7.20;99.90;;;;;;5023260;28;20511;-83
2021/12/19 06:39:34;;;;;;;4.17;2.50;;;7.30;99.90;;;;;;5018747;28;20973;-81
2021/12/19 06:42:01;;;;;;;5.40;3.70;;;7.30;99.90;;;;;;5017559;28;20899;-82
2021/12/19 06:44:29;;;;;;;5.40;3.47;;;7.20;99.90;;;;;;5020542;28;20462;-81
2021/12/19 06:46:56;;;;;;;7.97;4.80;;;7.20;99.90;;;;;;5017923;28;20463;-81
2021/12/19 06:49:23;;;;;;;9.43;5.90;;;7.30;99.90;;;;;;5022026;28;20457;-79
2021/12/19 06:51:50;;;;;;;13.07;8.37;;;7.20;99.90;;;;;;5027549;28;21014;-78
2021/12/19 06:54:16;;;;;;;144.00;63.43;;;7.30;99.90;;;;;;5032668;28;20463;-78
2021/12/19 06:56:43;;;;;;;25.50;15.77;;;7.30;99.90;;;;;;5033190;28;20455;-78
2021/12/19 06:59:10;;;;;;;8.53;5.63;;;7.20;99.90;;;;;;5032944;28;21004;-78
2021/12/19 07:01:39;;;;;;;9.20;5.47;;;7.30;99.90;;;;;;5032809;28;20848;-77
2021/12/19 07:04:06;;;;;;;8.10;6.23;;;7.40;99.90;;;;;;5022465;28;20461;-78
2021/12/19 07:06:33;;;;;;;5.10;3.60;;;7.40;99.90;;;;;;5018483;28;20442;-78
2021/12/19 07:09:01;;;;;;;7.43;4.50;;;7.40;99.90;;;;;;5023269;28;20445;-78
2021/12/19 07:11:27;;;;;;;11.77;4.37;;;7.30;99.90;;;;;;5027349;28;20555;-78
2021/12/19 07:13:54;;;;;;;8.03;5.23;;;7.20;99.90;;;;;;5020505;28;20464;-78
2021/12/19 07:16:21;;;;;;;9.93;4.90;;;7.30;99.90;;;;;;5022570;28;20448;-78
2021/12/19 07:18:49;;;;;;;6.63;5.00;;;7.30;99.90;;;;;;5023928;28;20483;-78
2021/12/19 07:21:16;;;;;;;8.43;5.00;;;7.30;99.90;;;;;;5026382;28;20544;-78
2021/12/19 07:23:43;;;;;;;11.43;5.63;;;7.30;99.90;;;;;;5025870;28;20980;-78
2021/12/19 07:26:11;;;;;;;8.73;5.33;;;7.30;99.90;;;;;;5020786;28;20455;-77
2021/12/19 07:28:40;;;;;;;14.10;6.97;;;7.30;99.90;;;;;;5029090;28;20544;-81
2021/12/19 07:31:07;;;;;;;10.43;5.90;;;7.30;99.90;;;;;;5027902;28;20468;-78
2021/12/19 07:33:33;;;;;;;10.53;6.43;;;7.30;99.90;;;;;;5032514;28;20477;-78
2021/12/19 07:36:02;;;;;;;7.93;5.60;;;7.30;99.90;;;;;;5027954;28;20463;-78
2021/12/19 07:38:33;;;;;;;8.50;4.70;;;7.30;99.90;;;;;;5022922;28;20484;-78
2021/12/19 07:41:02;;;;;;;8.77;5.40;;;7.30;99.90;;;;;;5025137;28;20551;-78
2021/12/19 07:43:29;;;;;;;11.20;6.37;;;7.30;99.90;;;;;;5027502;28;20487;-79
2021/12/19 07:45:56;;;;;;;9.40;6.77;;;7.40;99.90;;;;;;5024251;28;20546;-80
2021/12/19 07:48:23;;;;;;;10.30;6.40;;;7.30;99.90;;;;;;5019737;28;20547;-80
2021/12/19 07:51:17;;;;;;;8.77;5.83;;;7.30;99.90;;;;;;5015504;28;20950;-79
2021/12/19 07:53:44;;;;;;;7.33;5.00;;;7.30;99.90;;;;;;5020598;28;20485;-78
2021/12/19 07:56:11;;;;;;;8.53;5.33;;;7.30;99.90;;;;;;5004920;28;20578;-79
2021/12/19 07:58:39;;;;;;;7.30;4.60;;;7.30;99.90;;;;;;5031592;28;20515;-78
2021/12/19 08:01:06;;;;;;;9.17;5.37;;;7.30;99.90;;;;;;5024433;28;20453;-78
2021/12/19 08:03:32;;;;;;;11.20;5.93;;;7.30;99.90;;;;;;5024669;28;21049;-78
2021/12/19 08:05:59;;;;;;;9.27;5.70;;;7.40;99.90;;;;;;5032754;28;20449;-79
2021/12/19 08:08:31;;;;;;;8.20;5.07;;;7.40;99.90;;;;;;5018875;28;20457;-78
2021/12/19 08:13:43;;;;;;;7.33;5.40;;;7.30;99.90;;;;;;5024253;28;20533;-79
2021/12/19 08:16:10;;;;;;;7.90;5.37;;;7.30;99.90;;;;;;5024981;28;20973;-78
2021/12/19 08:18:37;;;;;;;7.90;4.63;;;7.30;99.90;;;;;;5025155;28;20571;-78
2021/12/19 08:21:04;;;;;;;10.50;7.10;;;7.40;99.90;;;;;;5035516;28;20459;-79
2021/12/19 08:23:34;;;;;;;9.93;6.53;;;7.40;99.90;;;;;;5037032;28;20483;-79
2021/12/19 08:26:01;;;;;;;12.07;6.17;;;7.40;99.90;;;;;;5031463;28;20488;-78
2021/12/19 08:28:28;;;;;;;10.20;6.17;;;7.40;99.90;;;;;;5015732;28;20536;-79
2021/12/19 08:30:55;;;;;;;11.97;7.43;;;7.40;99.90;;;;;;5017187;28;20457;-78
2021/12/19 08:33:22;;;;;;;11.90;7.33;;;7.40;99.90;;;;;;5034789;28;20495;-79
2021/12/19 08:35:48;;;;;;;13.57;7.83;;;7.50;99.90;;;;;;5033532;28;20466;-79
2021/12/19 08:38:15;;;;;;;13.13;8.30;;;7.50;99.90;;;;;;5033850;28;21019;-79
2021/12/19 08:40:45;;;;;;;11.67;7.93;;;7.50;99.90;;;;;;5035476;28;20464;-79
2021/12/19 08:43:12;;;;;;;13.13;8.73;;;7.60;99.90;;;;;;5025002;28;20472;-79
2021/12/19 08:45:39;;;;;;;21.83;10.33;;;7.60;99.90;;;;;;5031019;28;20455;-79
2021/12/19 08:48:06;;;;;;;17.27;10.10;;;7.50;99.90;;;;;;5034796;28;20452;-79
2021/12/19 08:50:33;;;;;;;16.27;9.50;;;7.50;99.90;;;;;;5022078;28;20461;-79
2021/12/19 08:53:00;;;;;;;14.50;8.57;;;7.60;99.90;;;;;;5019264;28;20482;-79
2021/12/19 08:55:27;;;;;;;15.57;10.00;;;7.60;99.90;;;;;;5028113;28;20468;-79
2021/12/19 08:57:55;;;;;;;18.00;11.10;;;7.60;99.90;;;;;;5016151;28;20485;-79
2021/12/19 09:00:22;;;;;;;15.80;9.50;;;7.70;99.90;;;;;;5027567;28;20436;-79
2021/12/19 09:02:53;;;;;;;19.17;10.70;;;7.70;99.90;;;;;;5036190;28;20823;-79
2021/12/19 09:05:21;;;;;;;14.60;10.33;;;7.70;99.90;;;;;;5036676;28;20514;-80
2021/12/19 09:07:50;;;;;;;17.00;9.53;;;7.70;99.90;;;;;;5036684;28;20872;-80
2021/12/19 09:10:17;;;;;;;20.40;11.07;;;7.80;99.90;;;;;;5034786;28;20540;-79
2021/12/19 09:12:43;;;;;;;17.80;10.73;;;7.70;99.90;;;;;;5020195;28;20475;-81
2021/12/19 09:15:12;;;;;;;16.70;10.30;;;7.70;99.90;;;;;;5023867;28;20459;-79
2021/12/19 09:17:39;;;;;;;15.87;9.50;;;7.80;99.90;;;;;;5025433;28;20438;-80
2021/12/19 09:20:08;;;;;;;16.90;9.90;;;7.80;99.90;;;;;;5026932;28;20453;-79
2021/12/19 09:22:35;;;;;;;15.17;10.50;;;7.70;99.90;;;;;;5028273;28;20488;-80
2021/12/19 09:25:02;;;;;;;15.13;9.93;;;7.70;99.90;;;;;;5022356;28;20462;-79
2021/12/19 09:27:29;;;;;;;20.20;10.30;;;7.80;99.90;;;;;;5017531;28;20457;-79
2021/12/19 09:29:56;;;;;;;11.90;8.10;;;7.60;99.90;;;;;;5020971;28;20453;-80
2021/12/19 09:32:27;;;;;;;13.60;9.80;;;7.70;99.90;;;;;;5020606;28;20477;-79
2021/12/19 09:34:53;;;;;;;15.20;9.03;;;7.70;99.90;;;;;;5019693;28;20627;-79
2021/12/19 09:37:20;;;;;;;13.33;8.10;;;7.80;99.90;;;;;;5025824;28;20446;-79
2021/12/19 09:39:50;;;;;;;13.70;8.00;;;7.90;99.90;;;;;;5024400;28;20489;-82
2021/12/19 09:42:20;;;;;;;9.00;5.83;;;8.00;99.90;;;;;;5035354;28;20477;-78
2021/12/19 09:44:47;;;;;;;6.50;4.70;;;8.00;99.90;;;;;;5031179;28;20455;-80
2021/12/19 09:47:14;;;;;;;6.20;4.83;;;8.10;99.90;;;;;;5029465;28;20518;-79
2021/12/19 09:49:42;;;;;;;8.67;5.30;;;8.10;99.90;;;;;;5023034;28;20453;-80
2021/12/19 09:52:09;;;;;;;6.03;4.50;;;8.00;99.90;;;;;;5035319;28;20562;-80
2021/12/19 09:54:39;;;;;;;5.17;3.10;;;8.10;99.90;;;;;;5041334;28;20949;-80
2021/12/19 09:57:06;;;;;;;4.40;3.10;;;8.10;99.90;;;;;;5041384;28;20815;-80
2021/12/19 09:59:33;;;;;;;4.13;2.63;;;8.10;99.90;;;;;;5038200;28;20548;-80
2021/12/19 10:02:00;;;;;;;7.17;3.07;;;8.10;99.90;;;;;;5048248;28;20471;-79
2021/12/19 10:04:38;;;;;;;4.70;3.20;;;8.20;99.90;;;;;;5041244;28;20474;-80
2021/12/19 10:07:12;;;;;;;3.13;1.90;;;8.20;99.90;;;;;;5040905;28;20981;-80
2021/12/19 10:09:52;;;;;;;3.17;2.00;;;8.20;99.90;;;;;;5032083;28;20830;-80
2021/12/19 10:12:48;;;;;;;2.60;1.50;;;8.30;99.90;;;;;;5034733;28;20485;-81
2021/12/19 10:15:18;;;;;;;2.70;1.87;;;8.30;99.90;;;;;;5056318;28;20463;-80
2021/12/19 10:17:46;;;;;;;3.63;2.27;;;8.40;99.90;;;;;;5050069;28;20508;-83
2021/12/19 10:20:19;;;;;;;2.70;1.40;;;8.30;99.90;;;;;;5043409;28;20524;-79
2021/12/19 10:22:48;;;;;;;2.70;1.60;;;8.40;99.90;;;;;;5042029;28;20492;-81
2021/12/19 10:25:20;;;;;;;2.10;1.40;;;8.60;99.90;;;;;;5039869;28;20456;-79
2021/12/19 10:27:50;;;;;;;2.00;1.10;;;8.60;99.90;;;;;;5033428;28;20481;-78
2021/12/19 10:30:24;;;;;;;2.83;1.20;;;8.80;99.90;;;;;;5037430;28;20441;-78
2021/12/19 10:32:56;;;;;;;4.60;1.00;;;8.80;99.90;;;;;;5037345;28;20473;-80
2021/12/19 10:35:26;;;;;;;1.83;1.10;;;8.80;99.90;;;;;;5036360;28;20449;-79
2021/12/19 10:37:55;;;;;;;2.03;0.97;;;9.10;99.90;;;;;;5027864;28;20464;-79
2021/12/19 10:40:23;;;;;;;4.57;0.97;;;9.20;99.90;;;;;;5036860;28;20461;-80
2021/12/19 10:42:55;;;;;;;2.50;0.80;;;9.20;99.90;;;;;;5032033;28;21004;-78
2021/12/19 10:45:32;;;;;;;1.83;0.83;;;9.10;99.90;;;;;;5036554;28;20462;-80
2021/12/19 10:48:21;;;;;;;1.60;0.73;;;9.20;99.90;;;;;;5035419;28;20456;-80
2021/12/19 10:50:51;;;;;;;1.70;0.77;;;9.30;99.90;;;;;;5034787;28;20457;-78
2021/12/19 10:53:23;;;;;;;2.63;1.00;;;9.30;99.90;;;;;;5030421;28;20473;-84
2021/12/19 10:55:50;;;;;;;1.90;1.07;;;9.20;99.90;;;;;;5021198;28;20449;-80
2021/12/19 10:58:34;;;;;;;1.83;0.80;;;9.10;99.90;;;;;;5036453;28;20893;-81
2021/12/19 11:01:08;;;;;;;2.20;1.10;;;9.00;99.90;;;;;;5035883;28;20527;-81
2021/12/19 11:03:39;;;;;;;2.10;1.00;;;8.80;99.90;;;;;;5017161;28;20485;-81
2021/12/19 11:06:21;;;;;;;2.20;1.00;;;8.70;99.90;;;;;;5016511;28;20455;-81
2021/12/19 11:08:50;;;;;;;2.10;1.30;;;8.50;99.90;;;;;;5035165;28;20459;-80
2021/12/19 11:11:32;;;;;;;2.03;0.90;;;8.60;99.90;;;;;;5036363;28;20469;-82
2021/12/19 11:13:59;;;;;;;2.10;1.20;;;8.60;99.90;;;;;;5015285;28;20454;-82
2021/12/19 11:16:27;;;;;;;2.53;1.40;;;8.70;99.90;;;;;;5016180;28;20463;-81
2021/12/19 11:18:54;;;;;;;2.33;1.10;;;8.70;99.90;;;;;;5015882;28;20497;-81
2021/12/19 11:21:21;;;;;;;2.97;1.10;;;8.70;99.90;;;;;;5015122;28;20454;-81
2021/12/19 11:23:49;;;;;;;1.93;1.00;;;8.60;99.90;;;;;;5037723;28;20476;-81
2021/12/19 11:26:19;;;;;;;1.80;0.90;;;8.60;99.90;;;;;;5039517;28;20452;-82
2021/12/19 11:28:48;;;;;;;1.60;0.90;;;8.50;99.90;;;;;;5039773;28;20503;-82
2021/12/19 11:31:15;;;;;;;2.47;1.10;;;8.60;99.90;;;;;;5039249;28;20979;-81
2021/12/19 11:33:57;;;;;;;2.53;1.13;;;8.70;99.90;;;;;;5021117;28;20554;-82
2021/12/19 11:36:25;;;;;;;2.50;1.40;;;8.70;99.90;;;;;;5019493;28;20519;-82
2021/12/19 11:38:54;;;;;;;1.80;0.80;;;8.70;99.90;;;;;;5019090;28;20489;-82
2021/12/19 11:41:21;;;;;;;2.10;1.07;;;8.80;99.90;;;;;;5019558;28;20525;-82
2021/12/19 11:43:51;;;;;;;2.10;1.10;;;8.70;99.90;;;;;;5020693;28;20473;-82
2021/12/19 11:46:22;;;;;;;1.80;1.07;;;8.80;99.90;;;;;;5019535;28;20464;-82
2021/12/19 11:49:11;;;;;;;2.50;1.33;;;8.70;99.90;;;;;;5028048;28;20455;-81
2021/12/19 11:51:38;;;;;;;2.10;1.07;;;8.50;99.90;;;;;;5030024;28;20445;-81
2021/12/19 11:54:16;;;;;;;2.30;1.20;;;8.40;99.90;;;;;;5030092;28;20444;-81
2021/12/19 11:57:06;;;;;;;2.07;0.90;;;8.50;99.90;;;;;;5032430;28;20445;-82
2021/12/19 11:59:33;;;;;;;1.60;0.83;;;8.20;99.90;;;;;;5027625;28;20519;-81
2021/12/19 12:02:22;;;;;;;1.90;0.90;;;8.30;99.90;;;;;;5028844;28;20476;-81
2021/12/19 12:05:19;;;;;;;2.10;1.00;;;8.30;99.90;;;;;;5029900;28;20450;-82
2021/12/19 12:08:13;;;;;;;2.00;1.00;;;8.30;99.90;;;;;;5025462;28;20464;-81
2021/12/19 12:11:12;;;;;;;2.93;1.10;;;8.20;99.90;;;;;;5027591;28;20538;-81
2021/12/19 12:13:42;;;;;;;2.00;1.20;;;8.20;99.90;;;;;;5029473;28;20840;-81
2021/12/19 12:16:37;;;;;;;2.00;1.20;;;8.30;99.90;;;;;;5028759;28;20449;-81
2021/12/19 12:19:06;;;;;;;37.07;19.60;;;8.30;99.90;;;;;;5027492;28;21012;-82
2021/12/19 12:21:40;;;;;;;47.33;22.40;;;8.50;99.90;;;;;;5029749;28;20530;-81
2021/12/19 12:24:08;;;;;;;12.70;6.60;;;8.60;99.90;;;;;;5030028;28;20446;-81
2021/12/19 12:26:41;;;;;;;4.23;2.67;;;8.70;99.90;;;;;;5026688;28;20539;-82
2021/12/19 12:29:09;;;;;;;2.40;1.47;;;8.70;99.90;;;;;;5029057;28;20810;-81
2021/12/19 12:31:37;;;;;;;2.00;1.20;;;8.60;99.90;;;;;;5026639;28;20449;-81
2021/12/19 12:34:08;;;;;;;2.83;1.73;;;8.60;99.90;;;;;;5027439;28;20447;-81
2021/12/19 12:36:35;;;;;;;3.10;1.70;;;8.60;99.90;;;;;;5029879;28;20929;-82
2021/12/19 12:39:06;;;;;;;3.47;2.00;;;8.60;99.90;;;;;;5028219;28;20491;-81
2021/12/19 12:41:47;;;;;;;4.00;2.03;;;8.40;99.90;;;;;;5021856;28;20519;-82
2021/12/19 12:44:17;;;;;;;3.33;2.17;;;8.30;99.90;;;;;;5019791;28;20461;-82
2021/12/19 12:46:45;;;;;;;3.57;2.50;;;8.40;99.90;;;;;;5020254;28;20452;-81
2021/12/19 12:49:16;;;;;;;9.03;2.93;;;8.40;99.90;;;;;;5033574;28;20453;-81
2021/12/19 12:51:45;;;;;;;3.50;2.10;;;8.30;99.90;;;;;;5031926;28;20449;-82
2021/12/19 12:54:13;;;;;;;2.70;1.80;;;8.30;99.90;;;;;;5029602;28;21002;-81
2021/12/19 12:56:45;;;;;;;9.40;2.27;;;8.30;99.90;;;;;;5033393;28;20462;-82
2021/12/19 12:59:13;;;;;;;6.37;2.27;;;8.40;99.90;;;;;;5038957;28;20458;-82
2021/12/19 13:01:45;;;;;;;4.00;2.47;;;8.40;99.90;;;;;;5051325;28;20442;-82
2021/12/19 13:04:16;;;;;;;3.50;2.50;;;8.30;99.90;;;;;;5027807;28;20450;-82
2021/12/19 13:06:57;;;;;;;3.20;2.30;;;8.30;99.90;;;;;;5027084;28;20631;-82
2021/12/19 13:09:27;;;;;;;4.00;2.40;;;8.20;99.90;;;;;;5030808;28;20552;-83
2021/12/19 13:12:00;;;;;;;3.00;2.00;;;8.20;99.90;;;;;;5031740;28;20829;-82
2021/12/19 13:14:29;;;;;;;4.03;2.40;;;8.40;99.90;;;;;;5026299;28;20464;-82
2021/12/19 13:16:58;;;;;;;3.60;2.47;;;8.30;99.90;;;;;;5034429;28;20837;-82
2021/12/19 13:19:37;;;;;;;7.90;2.70;;;8.40;99.90;;;;;;5020250;28;20477;-81
2021/12/19 13:22:04;;;;;;;4.30;2.53;;;8.40;99.90;;;;;;5034193;28;20551;-82
2021/12/19 13:24:34;;;;;;;4.67;2.53;;;8.40;99.90;;;;;;5028858;28;20949;-82
2021/12/19 13:27:06;;;;;;;4.20;2.67;;;8.30;99.90;;;;;;5020495;28;20450;-82
2021/12/19 13:29:33;;;;;;;3.50;2.60;;;8.30;99.90;;;;;;5031907;28;20453;-82
2021/12/19 13:32:21;;;;;;;4.77;3.10;;;8.20;99.90;;;;;;5023888;28;20472;-82
2021/12/19 13:34:49;;;;;;;12.57;11.33;;;8.20;99.90;;;;;;5025663;28;20817;-82
2021/12/19 13:37:16;;;;;;;7.10;4.37;;;8.20;99.90;;;;;;5027394;28;20828;-82
2021/12/19 13:39:48;;;;;;;4.10;3.10;;;8.20;99.90;;;;;;5024808;28;20473;-82
2021/12/19 13:42:16;;;;;;;6.50;4.10;;;8.20;99.90;;;;;;5029160;28;20505;-83
2021/12/19 13:44:46;;;;;;;7.50;3.70;;;8.10;99.90;;;;;;5029883;28;20471;-82
2021/12/19 13:47:14;;;;;;;4.83;3.70;;;8.20;99.90;;;;;;5021312;28;20964;-81
2021/12/19 13:49:42;;;;;;;4.40;3.33;;;8.20;99.90;;;;;;5029293;28;20452;-83
2021/12/19 13:52:09;;;;;;;3.67;2.73;;;8.20;99.90;;;;;;5026057;28;20481;-82
2021/12/19 13:54:40;;;;;;;6.13;4.30;;;8.30;99.90;;;;;;5035407;28;20452;-82
2021/12/19 13:57:20;;;;;;;6.73;4.00;;;8.30;99.90;;;;;;5030826;28;20722;-82